Latest Weather Observations for Moomba Airport

IDS60801

Issued at 10:31 am CST Thursday 25 May 2017 (issued every 30 minutes, with the page automatically refreshed every 10 minutes)

About weather observations | Map of weather stations | Latest weather observations for SA | Other Formats
Station Details ID: 017123 Name: MOOMBA AIRPORT Lat: -28.10 Lon: 140.20 Height: 37.8 m
Data from the previous 72 hours. | See also: Recent months at Moomba Airport
Date/Time
CST
Temp
°C
App
Temp
°C
Dew
Point
°C
Rel
Hum
%
Delta-T
°C
Wind Press
QNH
hPa
Press
MSL
hPa
Rain since
9am
mm
Dir  Spd
km/h
Gust
km/h
Spd
kts
Gust
kts
25/10:30am 20.2 18.0 7.9 45 6.3 SE 9 13 5 7 1023.0 1023.0 0.0
25/10:00am 18.9 16.7 8.0 49 5.6 SE 9 15 5 8 1023.1 1023.1 0.0
25/09:30am 17.3 14.7 7.6 53 4.9 ESE 11 15 6 8 1023.0 1023.0 0.0
25/09:00am 15.9 13.6 7.4 57 4.2 ESE 9 11 5 6 1023.0 1023.0 0.0
25/08:30am 14.9 12.6 7.5 61 3.6 SE 9 11 5 6 1022.7 1022.7 0.0
25/08:00am 12.6 10.2 7.1 69 2.7 SSE 9 11 5 6 1022.6 1022.6 0.0
25/07:30am 9.4 8.1 5.9 79 1.6 S 2 6 1 3 1022.3 1022.3 0.0
25/07:00am 8.7 6.5 6.0 83 1.2 S 7 9 4 5 1022.2 1022.2 0.0
25/06:30am 8.4 6.0 5.3 81 1.4 S 7 9 4 5 1022.0 1022.0 0.0
25/06:00am 8.6 6.2 5.4 80 1.4 SSW 7 9 4 5 1021.7 1021.7 0.0
25/05:30am 9.3 7.0 5.9 79 1.6 SSE 7 9 4 5 1021.5 1021.5 0.0
25/05:00am 9.6 7.4 6.0 78 1.7 S 7 9 4 5 1021.3 1021.3 0.0
25/04:30am 10.6 8.1 6.6 76 1.9 SSE 9 11 5 6 1021.1 1021.1 0.0
25/04:00am 9.8 7.1 5.6 75 1.9 SSW 9 9 5 5 1021.3 1021.3 0.0
25/03:30am 9.5 6.6 4.9 73 2.1 SSW 9 9 5 5 1021.5 1021.5 0.0
25/03:00am 9.9 7.4 4.9 71 2.2 S 7 9 4 5 1021.4 1021.4 0.0
25/02:30am 10.2 7.9 4.8 69 2.4 S 6 9 3 5 1021.5 1021.5 0.0
25/02:00am 10.7 7.8 4.8 67 2.7 SSW 9 9 5 5 1021.5 1021.5 0.0
25/01:30am 10.8 7.9 4.7 66 2.7 SW 9 9 5 5 1021.6 1021.6 0.0
25/01:00am 11.1 8.2 4.8 65 2.9 SSW 9 9 5 5 1021.6 1021.6 0.0
25/12:30am 11.3 8.8 4.5 63 3.1 SSW 7 9 4 5 1021.7 1021.7 0.0
25/12:00am 11.7 8.8 4.4 61 3.3 SSW 9 11 5 6 1022.0 1022.0 0.0
 
Date/Time
CST
Temp
°C
App
Temp
°C
Dew
Point
°C
Rel
Hum
%
Delta-T
°C
Wind Press
QNH
hPa
Press
MSL
hPa
Rain since
9am
mm
Dir  Spd
km/h
Gust
km/h
Spd
kts
Gust
kts
24/11:30pm 12.7 10.3 5.1 60 3.5 S 7 11 4 6 1022.2 1022.2 0.0
24/11:00pm 13.0 10.5 4.9 58 3.7 SSW 7 9 4 5 1022.3 1022.3 0.0
24/10:30pm 13.4 11.0 5.1 57 3.8 SSW 7 9 4 5 1022.4 1022.4 0.0
24/10:00pm 13.8 11.3 4.9 55 4.1 S 7 9 4 5 1022.4 1022.4 0.0
24/09:30pm 13.3 11.0 4.7 56 3.9 SSW 6 9 3 5 1022.4 1022.4 0.0
24/09:00pm 14.0 11.6 4.3 52 4.4 SSW 6 9 3 5 1022.4 1022.4 0.0
24/08:30pm 15.7 12.8 4.4 47 5.3 S 9 17 5 9 1022.3 1022.3 0.0
24/08:00pm 15.7 13.8 4.7 48 5.2 SSE 4 13 2 7 1022.1 1022.1 0.0
24/07:30pm 16.3 14.2 4.0 44 5.7 SSE 4 9 2 5 1021.8 1021.8 0.0
24/07:00pm 17.6 15.0 4.2 41 6.3 SSE 7 13 4 7 1021.6 1021.6 0.0
24/06:30pm 18.2 15.6 4.0 39 6.7 SSE 7 11 4 6 1021.3 1021.3 0.0
24/06:00pm 19.5 16.1 4.0 36 7.4 S 11 13 6 7 1021.0 1021.0 0.0
24/05:30pm 20.2 16.8 3.9 34 7.8 SSE 11 17 6 9 1020.7 1020.7 0.0
24/05:00pm 21.2 17.0 3.9 32 8.3 SSE 15 20 8 11 1020.5 1020.5 0.0
24/04:30pm 21.8 18.0 3.9 31 8.6 S 13 19 7 10 1020.4 1020.4 0.0
24/04:00pm 22.0 18.1 3.6 30 8.9 S 13 20 7 11 1020.5 1020.5 0.0
24/03:30pm 22.1 18.3 3.7 30 8.9 S 13 20 7 11 1020.4 1020.4 0.0
24/03:00pm 22.4 18.7 4.5 31 8.8 ESE 13 20 7 11 1020.4 1020.4 0.0
24/02:30pm 21.9 17.3 3.6 30 8.8 SSE 17 28 9 15 1020.3 1020.3 0.0
24/02:00pm 21.8 17.2 3.9 31 8.7 SSE 17 26 9 14 1020.5 1020.5 0.0
24/01:30pm 21.7 16.9 4.7 33 8.3 SSE 19 28 10 15 1020.7 1020.7 0.0
24/01:00pm 20.9 16.1 4.5 34 8.0 SE 19 26 10 14 1021.2 1021.2 0.0
24/12:30pm 20.8 15.9 5.2 36 7.7 SE 20 30 11 16 1021.7 1021.7 0.0
24/12:00pm 20.6 16.0 5.4 37 7.5 SSE 19 28 10 15 1022.1 1022.1 0.0
24/11:30am 19.7 15.1 5.4 39 7.0 SE 19 30 10 16 1022.7 1022.7 0.0
24/11:00am 19.8 15.6 5.8 40 6.9 SE 17 22 9 12 1023.2 1023.2 0.0
24/10:30am 18.7 14.1 5.5 42 6.4 SE 19 24 10 13 1023.6 1023.6 0.0
24/10:00am 17.9 13.3 5.5 44 6.0 SE 19 22 10 12 1023.8 1023.8 0.0
24/09:30am 16.8 12.5 5.1 46 5.6 SE 17 22 9 12 1023.8 1023.8 0.0
24/09:00am 15.4 11.8 5.0 50 4.9 SSE 13 17 7 9 1023.5 1023.5 0.0
24/08:30am 12.9 9.4 3.6 53 4.2 S 11 15 6 8 1023.2 1023.2 0.0
24/08:00am 11.4 8.6 3.2 57 3.6 S 7 11 4 6 1023.0 1023.0 0.0
24/07:30am 10.2 7.0 3.0 61 3.1 S 9 13 5 7 1022.5 1022.5 0.0
24/07:00am 9.6 6.0 2.9 63 2.9 SSW 11 13 6 7 1022.2 1022.2 0.0
24/06:30am 10.0 6.8 3.1 62 3.0 S 9 13 5 7 1021.9 1021.9 0.0
24/06:00am 10.1 6.9 3.2 62 3.0 S 9 11 5 6 1021.6 1021.6 0.0
24/05:30am 10.1 6.9 3.2 62 3.0 S 9 13 5 7 1021.4 1021.4 0.0
24/05:00am 10.7 6.8 3.5 61 3.2 SSW 13 17 7 9 1021.1 1021.1 0.0
24/04:30am 11.3 7.8 3.3 58 3.5 SSW 11 15 6 8 1020.9 1020.9 0.0
24/04:00am 11.7 8.6 3.5 57 3.6 SW 9 13 5 7 1020.9 1020.9 0.0
24/03:30am 12.2 9.1 3.4 55 3.9 SW 9 13 5 7 1020.9 1020.9 0.0
24/03:00am 13.0 9.5 3.7 53 4.2 SSW 11 13 6 7 1020.9 1020.9 0.0
24/02:30am 13.6 10.2 3.9 52 4.4 SSW 11 17 6 9 1020.9 1020.9 0.0
24/02:00am 14.2 10.0 3.9 50 4.7 SW 15 20 8 11 1020.8 1020.8 0.0
24/01:30am 15.0 10.1 4.1 48 5.0 SW 19 24 10 13 1020.7 1020.7 0.0
24/01:00am 15.5 10.7 4.6 48 5.1 SW 19 24 10 13 1020.8 1020.8 0.0
24/12:30am 16.1 11.1 4.5 46 5.4 SW 20 26 11 14 1020.8 1020.8 0.0
24/12:00am 16.5 11.6 4.9 46 5.5 SW 20 26 11 14 1020.7 1020.7 0.0
 
Date/Time
CST
Temp
°C
App
Temp
°C
Dew
Point
°C
Rel
Hum
%
Delta-T
°C
Wind Press
QNH
hPa
Press
MSL
hPa
Rain since
9am
mm
Dir  Spd
km/h
Gust
km/h
Spd
kts
Gust
kts
23/11:30pm 17.0 12.1 5.0 45 5.7 SW 20 28 11 15 1020.9 1020.9 0.0
23/11:00pm 17.2 12.9 5.2 45 5.8 SW 17 22 9 12 1020.9 1020.9 0.0
23/10:30pm 17.7 13.4 5.3 44 6.0 SW 17 20 9 11 1020.9 1020.9 0.0
23/10:00pm 18.6 14.3 5.1 41 6.5 SW 17 20 9 11 1020.6 1020.6 0.0
23/09:30pm 19.2 14.9 5.3 40 6.8 SW 17 20 9 11 1020.5 1020.5 0.0
23/09:00pm 19.9 15.0 5.2 38 7.2 SW 20 24 11 13 1020.2 1020.2 0.0
23/08:30pm 20.0 16.1 5.3 38 7.2 SW 15 19 8 10 1019.7 1019.7 0.0
23/08:00pm 20.8 16.9 5.2 36 7.7 SW 15 20 8 11 1019.2 1019.2 0.0
23/07:30pm 21.5 17.6 5.4 35 8.0 SW 15 20 8 11 1018.8 1018.8 0.0
23/07:00pm 22.3 18.1 5.7 34 8.3 SW 17 20 9 11 1018.4 1018.4 0.0
23/06:30pm 23.1 19.0 6.0 33 8.7 SW 17 20 9 11 1018.0 1018.0 0.0
23/06:00pm 24.1 20.3 5.9 31 9.3 SW 15 19 8 10 1017.5 1017.5 0.0
23/05:30pm 25.3 22.3 6.0 29 9.9 SW 11 15 6 8 1017.1 1017.1 0.0
23/05:00pm 26.8 22.6 5.7 26 10.9 SW 17 22 9 12 1016.7 1016.7 0.0
23/04:30pm 27.5 23.1 4.5 23 11.7 SW 17 24 9 13 1016.4 1016.4 0.0
23/04:00pm 28.1 23.7 5.0 23 11.9 SW 17 22 9 12 1016.2 1016.2 0.0
23/03:30pm 28.3 24.0 5.2 23 11.9 SW 17 20 9 11 1016.1 1016.1 0.0
23/03:00pm 28.3 23.5 4.6 22 12.1 SW 19 26 10 14 1016.0 1016.0 0.0
23/02:30pm 28.1 24.9 5.0 23 11.9 WSW 11 17 6 9 1016.0 1016.0 0.0
23/02:00pm 27.8 24.2 4.8 23 11.8 SW 13 20 7 11 1016.1 1016.1 0.0
23/01:30pm 27.5 23.8 4.5 23 11.7 WSW 13 28 7 15 1016.3 1016.3 0.0
23/01:00pm 27.3 23.2 4.4 23 11.6 W 15 22 8 12 1016.6 1016.6 0.0
23/12:30pm 26.6 22.8 3.8 23 11.4 W 13 20 7 11 1017.1 1017.1 0.0
23/12:00pm 26.8 22.9 3.3 22 11.6 WNW 13 19 7 10 1017.5 1017.5 0.0
23/11:30am 26.5 22.9 3.1 22 11.5 NW 11 19 6 10 1017.9 1017.9 0.0
23/11:00am 25.8 21.8 3.1 23 11.1 NNW 13 19 7 10 1018.1 1018.1 0.0
23/10:30am 25.5 21.1 2.9 23 11.0 NNW 15 20 8 11 1018.5 1018.5 0.0
23/10:00am 23.6 19.6 5.0 30 9.3 N 15 19 8 10 1018.5 1018.5 0.0
23/09:30am 23.1 19.7 6.0 33 8.7 N 13 17 7 9 1018.8 1018.8 0.0
23/09:00am 20.5 18.1 6.8 41 6.9 WNW 9 13 5 7 1018.8 1018.8 0.0
23/08:30am 19.0 16.4 7.8 48 5.7 N 11 15 6 8 1018.1 1018.1 0.0
23/08:00am 16.2 13.1 7.2 55 4.5 NNE 13 17 7 9 1017.7 1017.7 0.0
23/07:30am 15.1 12.9 7.9 62 3.6 N 9 13 5 7 1017.6 1017.6 0.0
23/07:00am 13.5 11.2 7.5 67 2.9 NNE 9 11 5 6 1017.1 1017.1 0.0
23/06:30am 13.5 12.9 7.5 67 2.9 CALM 0 0 0 0 1017.0 1017.0 0.0
23/06:00am 14.6 11.9 7.2 61 3.6 NNE 11 13 6 7 1016.4 1016.4 0.0
23/05:30am 14.6 12.0 7.6 63 3.5 NE 11 13 6 7 1016.1 1016.1 0.0
23/05:00am 14.1 12.1 8.5 69 2.8 E 9 13 5 7 1016.0 1016.0 0.0
23/04:30am 14.3 13.9 8.3 67 3.0 CALM 0 0 0 0 1016.1 1016.1 0.0
23/04:00am 14.3 13.8 7.8 65 3.2 CALM 0 0 0 0 1015.8 1015.8 0.0
23/03:30am 14.7 13.4 7.7 63 3.5 S 4 7 2 4 1015.4 1015.4 0.0
23/03:00am 16.0 14.0 7.2 56 4.4 WSW 7 9 4 5 1015.4 1015.4 0.0
23/02:30am 15.0 11.8 8.3 64 3.4 NNE 15 17 8 9 1015.2 1015.2 0.0
23/02:00am 16.3 12.6 8.0 58 4.2 N 17 20 9 11 1015.2 1015.2 0.0
23/01:30am 15.9 12.5 9.1 64 3.5 NNE 17 17 9 9 1015.4 1015.4 0.0
23/01:00am 16.3 13.6 9.0 62 3.8 N 13 15 7 8 1015.7 1015.7 0.0
23/12:30am 15.9 14.2 10.0 68 3.1 N 9 11 5 6 1015.9 1015.9 0.0
23/12:00am 15.9 14.4 10.7 71 2.8 N 9 13 5 7 1016.2 1016.2 0.0
 
Date/Time
CST
Temp
°C
App
Temp
°C
Dew
Point
°C
Rel
Hum
%
Delta-T
°C
Wind Press
QNH
hPa
Press
MSL
hPa
Rain since
9am
mm
Dir  Spd
km/h
Gust
km/h
Spd
kts
Gust
kts
22/11:30pm 16.6 14.6 10.2 66 3.4 N 11 11 6 6 1016.5 1016.5 0.0
22/11:00pm 18.1 16.6 10.7 62 4.0 NW 9 13 5 7 1016.7 1016.7 0.0
22/10:30pm 18.6 16.8 10.7 60 4.3 NNW 11 15 6 8 1016.7 1016.7 0.0
22/10:00pm 18.9 16.6 11.9 64 3.9 NNW 15 17 8 9 1016.7 1016.7 0.0
22/09:30pm 18.7 16.9 12.0 65 3.7 NNW 13 15 7 8 1016.6 1016.6 0.0
22/09:00pm 19.6 17.8 12.1 62 4.2 N 13 13 7 7 1016.6 1016.6 0.0
22/08:30pm 20.8 18.6 12.0 57 4.9 NNW 15 19 8 10 1016.4 1016.4 0.0
22/08:00pm 20.4 18.6 12.1 59 4.6 NNE 13 15 7 8 1016.0 1016.0 0.0
22/07:30pm 21.2 19.4 12.1 56 5.1 NNE 13 13 7 7 1015.8 1015.8 0.0
22/07:00pm 21.5 19.7 12.1 55 5.3 NNE 13 15 7 8 1015.7 1015.7 0.0
22/06:30pm 21.6 20.1 11.9 54 5.4 NNE 11 13 6 7 1015.5 1015.5 0.0
22/06:00pm 23.3 21.5 12.0 49 6.4 N 13 15 7 8 1015.3 1015.3 0.0
22/05:30pm 25.3 23.3 11.5 42 7.8 NNW 13 15 7 8 1015.3 1015.3 0.0
22/05:00pm 27.2 23.9 10.8 36 9.3 NNW 19 26 10 14 1015.1 1015.1 0.0
22/04:30pm 28.4 25.3 11.5 35 9.7 N 19 24 10 13 1015.0 1015.0 0.0
22/04:00pm 28.8 24.7 11.4 34 10.0 N 24 32 13 17 1015.0 1015.0 0.0
22/03:30pm 29.2 25.6 11.7 34 10.1 N 22 30 12 16 1014.9 1014.9 0.0
22/03:00pm 28.9 25.1 12.3 36 9.7 NNE 24 32 13 17 1014.8 1014.8 0.0
22/02:30pm 28.8 25.2 13.1 38 9.3 NNE 24 32 13 17 1015.0 1015.0 0.0
22/02:00pm 28.9 25.5 13.6 39 9.1 N 24 35 13 19 1015.3 1015.3 0.0
22/01:30pm 28.5 26.0 14.0 41 8.7 NNE 20 33 11 18 1015.6 1015.6 0.0
22/01:00pm 27.7 24.4 14.0 43 8.2 NE 24 43 13 23 1016.1 1016.1 0.0
22/12:30pm 27.8 25.3 15.1 46 7.7 NE 22 32 12 17 1016.6 1016.6 0.0
22/12:00pm 26.6 23.9 14.7 48 7.1 NNE 22 30 12 16 1017.3 1017.3 0.0
22/11:30am 25.9 23.3 15.0 51 6.6 NNE 22 30 12 16 1017.9 1017.9 0.0
22/11:00am 24.5 21.4 14.6 54 5.9 NE 24 28 13 15 1018.4 1018.4 0.0

Other Formats:

Comma delimited format used in spreadsheet applications
http://www.bom.gov.au/fwo/IDS60801/IDS60801.95481.axf

JavaScript Object Notation format (JSON) in row-major order
http://www.bom.gov.au/fwo/IDS60801/IDS60801.95481.json